createdAt,value
2023-03-12T00:02:22.167Z,38.30
2023-03-12T00:04:51.947Z,24.70
2023-03-12T00:07:21.452Z,18.70
2023-03-12T00:09:51.040Z,15.20
2023-03-12T00:12:20.324Z,8.10
2023-03-12T00:14:49.485Z,10.40
2023-03-12T00:17:18.770Z,7.50
2023-03-12T00:19:53.316Z,8.00
2023-03-12T00:22:23.736Z,8.00
2023-03-12T00:24:54.485Z,7.20
2023-03-12T00:27:24.724Z,6.00
2023-03-12T00:29:54.454Z,8.40
2023-03-12T00:32:24.652Z,6.80
2023-03-12T00:34:56.854Z,6.70
2023-03-12T00:37:26.403Z,7.20
2023-03-12T00:39:55.947Z,7.00
2023-03-12T00:42:25.005Z,6.80
2023-03-12T00:44:54.375Z,7.80
2023-03-12T00:47:23.702Z,6.60
2023-03-12T00:49:52.913Z,8.00
2023-03-12T00:52:22.278Z,9.50
2023-03-12T00:54:51.521Z,6.30
2023-03-12T00:57:20.594Z,6.90
2023-03-12T00:59:50.086Z,6.90
2023-03-12T01:02:20.024Z,6.20
2023-03-12T01:04:49.372Z,6.80
2023-03-12T01:07:18.984Z,7.10
2023-03-12T01:09:48.193Z,7.30
2023-03-12T01:12:17.666Z,28.40
2023-03-12T01:14:46.863Z,9.70
2023-03-12T01:17:16.268Z,7.00
2023-03-12T01:19:45.724Z,8.80
2023-03-12T01:22:15.389Z,8.60
2023-03-12T01:24:44.704Z,7.00
2023-03-12T01:27:14.156Z,5.00
2023-03-12T01:29:43.354Z,5.70
2023-03-12T01:32:12.993Z,5.10
2023-03-12T01:34:42.058Z,6.10
2023-03-12T01:37:11.568Z,5.00
2023-03-12T01:39:40.955Z,6.50
2023-03-12T01:42:10.516Z,5.30
2023-03-12T01:44:53.096Z,6.40
2023-03-12T01:47:22.723Z,7.40
2023-03-12T01:49:54.237Z,7.30
2023-03-12T01:52:36.990Z,6.70
2023-03-12T01:55:15.809Z,5.90
2023-03-12T01:57:55.707Z,8.20
2023-03-12T02:00:28.122Z,6.20
2023-03-12T02:03:03.398Z,7.10
2023-03-12T02:05:44.325Z,6.20
2023-03-12T02:08:15.463Z,5.50
2023-03-12T02:10:45.782Z,6.30
2023-03-12T02:13:15.140Z,6.20
2023-03-12T02:15:44.223Z,6.80
2023-03-12T02:18:18.035Z,5.70
2023-03-12T02:21:06.051Z,5.90
2023-03-12T02:24:02.050Z,6.30
2023-03-12T02:26:31.800Z,5.80
2023-03-12T02:29:01.723Z,4.50
2023-03-12T02:31:37.900Z,5.50
2023-03-12T02:34:07.172Z,4.90
2023-03-12T02:36:37.506Z,7.70
2023-03-12T02:39:07.065Z,5.80
2023-03-12T02:41:58.277Z,4.30
2023-03-12T02:44:33.868Z,5.20
2023-03-12T02:47:03.619Z,5.80
2023-03-12T02:49:34.490Z,5.40
2023-03-12T02:52:04.968Z,4.30
2023-03-12T02:54:34.439Z,6.20
2023-03-12T02:57:03.483Z,6.20
2023-03-12T02:59:32.398Z,5.50
2023-03-12T03:02:02.570Z,6.50
2023-03-12T03:04:32.661Z,6.70
2023-03-12T03:07:02.379Z,6.90
2023-03-12T03:09:31.537Z,7.80
2023-03-12T03:12:01.427Z,5.40
2023-03-12T03:14:30.451Z,6.70
2023-03-12T03:16:59.969Z,6.10
2023-03-12T03:19:29.056Z,4.70
2023-03-12T03:21:59.149Z,6.40
2023-03-12T03:24:28.515Z,6.10
2023-03-12T03:26:58.125Z,6.40
2023-03-12T03:29:27.291Z,7.00
2023-03-12T03:31:56.625Z,7.00
2023-03-12T03:34:25.891Z,6.30
2023-03-12T03:36:55.010Z,4.60
2023-03-12T03:39:25.821Z,4.10
2023-03-12T03:41:54.995Z,4.20
2023-03-12T03:44:24.526Z,4.40
2023-03-12T03:46:55.838Z,5.10
2023-03-12T03:49:25.375Z,4.30
2023-03-12T03:51:54.563Z,3.10
2023-03-12T03:54:23.952Z,3.80
2023-03-12T03:56:53.251Z,3.00
2023-03-12T03:59:22.663Z,4.00
2023-03-12T04:01:51.845Z,3.80
2023-03-12T04:04:21.597Z,4.40
2023-03-12T04:06:50.758Z,3.50
2023-03-12T04:09:20.091Z,5.30
2023-03-12T04:11:49.485Z,6.10
2023-03-12T04:14:18.962Z,5.30
2023-03-12T04:16:48.377Z,30.20
2023-03-12T04:19:18.415Z,30.20
2023-03-12T04:21:48.245Z,39.80
2023-03-12T04:24:18.231Z,68.70
2023-03-12T04:26:47.796Z,38.60
2023-03-12T04:29:17.155Z,4.60
2023-03-12T04:31:47.014Z,9.70
2023-03-12T04:34:16.296Z,7.80
2023-03-12T04:36:47.204Z,3.90
2023-03-12T04:39:20.742Z,7.40
2023-03-12T04:41:50.054Z,4.40
2023-03-12T04:44:18.921Z,4.80
2023-03-12T04:46:48.151Z,7.10
2023-03-12T04:49:17.496Z,8.90
2023-03-12T04:51:46.689Z,36.40
2023-03-12T04:54:15.774Z,42.60
2023-03-12T04:56:44.756Z,33.20
2023-03-12T04:59:14.855Z,25.70
2023-03-12T05:01:44.233Z,25.10
2023-03-12T05:04:13.488Z,51.90
2023-03-12T05:06:43.100Z,29.10
2023-03-12T05:09:12.299Z,15.40
2023-03-12T05:11:41.330Z,22.40
2023-03-12T05:14:12.464Z,25.50
2023-03-12T05:16:42.004Z,19.70
2023-03-12T05:19:11.720Z,23.00
2023-03-12T05:21:44.902Z,21.40
2023-03-12T05:24:14.047Z,27.80
2023-03-12T05:26:44.115Z,15.00
2023-03-12T05:29:13.562Z,31.30
2023-03-12T05:31:42.981Z,25.80
2023-03-12T05:34:13.945Z,19.20
2023-03-12T05:36:43.951Z,23.60
2023-03-12T05:39:12.988Z,23.50
2023-03-12T05:41:42.216Z,17.90
2023-03-12T05:44:14.234Z,24.00
2023-03-12T05:46:44.580Z,27.00
2023-03-12T05:49:13.637Z,22.60
2023-03-12T05:51:44.111Z,31.10
2023-03-12T05:54:13.723Z,39.40
2023-03-12T05:56:43.012Z,55.90
2023-03-12T05:59:12.498Z,52.80
2023-03-12T06:01:43.076Z,46.80
2023-03-12T06:04:12.519Z,48.80
2023-03-12T06:06:41.704Z,67.50
2023-03-12T06:09:10.897Z,57.50
2023-03-12T06:11:40.137Z,49.80
2023-03-12T06:14:09.528Z,49.20
2023-03-12T06:16:38.694Z,52.90
2023-03-12T06:19:08.612Z,77.70
2023-03-12T06:21:38.554Z,67.10
2023-03-12T06:24:08.408Z,91.90
2023-03-12T06:26:37.930Z,72.00
2023-03-12T06:29:07.073Z,62.50
2023-03-12T06:31:38.737Z,65.30
2023-03-12T06:34:08.652Z,75.10
2023-03-12T06:36:38.082Z,95.50
2023-03-12T06:39:07.492Z,95.50
2023-03-12T06:41:37.139Z,89.60
2023-03-12T06:44:06.756Z,78.90
2023-03-12T06:46:36.202Z,79.90
2023-03-12T06:49:06.018Z,55.40
2023-03-12T06:51:35.094Z,65.60
2023-03-12T06:54:04.108Z,68.80
2023-03-12T06:56:33.519Z,87.70
2023-03-12T06:59:02.463Z,117.10
2023-03-12T07:01:31.461Z,78.80
2023-03-12T07:04:00.765Z,62.50
2023-03-12T07:06:29.894Z,50.90
2023-03-12T07:08:59.061Z,47.10
2023-03-12T07:11:28.288Z,50.10
2023-03-12T07:13:57.908Z,30.90
2023-03-12T07:16:27.751Z,23.30
2023-03-12T07:18:57.662Z,29.70
2023-03-12T07:21:27.435Z,33.60
2023-03-12T07:23:56.637Z,34.80
2023-03-12T07:26:25.869Z,31.70
2023-03-12T07:28:55.147Z,31.20
2023-03-12T07:31:24.170Z,25.00
2023-03-12T07:33:53.492Z,22.30
2023-03-12T07:36:22.743Z,14.10
2023-03-12T07:38:53.598Z,8.60
2023-03-12T07:41:23.363Z,7.80
2023-03-12T07:43:52.832Z,6.60
2023-03-12T07:46:22.725Z,7.10
2023-03-12T07:48:52.259Z,6.80
2023-03-12T07:51:22.249Z,9.10
2023-03-12T07:53:51.268Z,8.40
2023-03-12T07:56:20.740Z,8.70
2023-03-12T07:58:50.039Z,7.70
2023-03-12T08:01:19.514Z,7.10
2023-03-12T08:03:49.213Z,8.30
2023-03-12T08:06:19.564Z,7.50
2023-03-12T08:08:49.569Z,7.90
2023-03-12T08:11:20.310Z,7.00
2023-03-12T08:13:49.953Z,7.60
2023-03-12T08:16:19.415Z,7.10
2023-03-12T08:18:48.628Z,6.50
2023-03-12T08:21:18.225Z,7.90
2023-03-12T08:23:47.483Z,7.50
2023-03-12T08:26:16.842Z,9.10
2023-03-12T08:28:46.112Z,6.90
2023-03-12T08:31:15.699Z,15.50
2023-03-12T08:33:47.402Z,19.80
2023-03-12T08:36:16.878Z,18.30
2023-03-12T08:38:45.943Z,14.70
2023-03-12T08:41:15.766Z,8.70
2023-03-12T08:43:44.999Z,7.10
2023-03-12T08:46:14.301Z,7.90
2023-03-12T08:48:43.644Z,9.20
2023-03-12T08:51:14.856Z,7.20
2023-03-12T08:53:45.749Z,8.80
2023-03-12T08:56:15.338Z,6.50
2023-03-12T08:58:45.824Z,7.70
2023-03-12T09:01:15.622Z,6.00
2023-03-12T09:03:44.959Z,7.00
2023-03-12T09:06:17.567Z,6.60
2023-03-12T09:08:48.785Z,7.30
2023-03-12T09:11:19.528Z,5.80
2023-03-12T09:16:38.318Z,5.80
2023-03-12T09:19:07.522Z,6.60
2023-03-12T09:21:37.272Z,7.80
2023-03-12T09:24:08.163Z,6.30
2023-03-12T09:26:37.229Z,5.90
2023-03-12T09:29:07.180Z,5.50
2023-03-12T09:31:36.972Z,6.80
2023-03-12T09:34:07.392Z,5.90
2023-03-12T09:36:36.731Z,5.90
2023-03-12T09:39:06.708Z,5.60
2023-03-12T09:41:40.510Z,5.90
2023-03-12T09:44:25.023Z,6.80
2023-03-12T09:47:02.965Z,7.00
2023-03-12T09:49:47.428Z,5.70
2023-03-12T09:52:26.486Z,10.10
2023-03-12T09:55:07.153Z,4.90
2023-03-12T09:57:37.131Z,4.30
2023-03-12T10:00:12.851Z,5.10
2023-03-12T10:03:17.103Z,5.90
2023-03-12T10:05:51.909Z,5.90
2023-03-12T10:08:36.866Z,6.20
2023-03-12T10:11:42.708Z,4.90
2023-03-12T10:14:46.155Z,5.50
2023-03-12T10:17:44.037Z,4.70
2023-03-12T10:20:35.461Z,5.90
2023-03-12T10:23:24.195Z,7.10
2023-03-12T10:26:04.290Z,7.00
2023-03-12T10:28:51.103Z,4.40
2023-03-12T10:31:32.754Z,5.00
2023-03-12T10:34:04.086Z,5.10
2023-03-12T10:36:40.956Z,5.20
2023-03-12T10:39:19.698Z,4.10
2023-03-12T10:41:49.722Z,4.20
2023-03-12T10:44:22.815Z,3.90
2023-03-12T10:47:01.027Z,5.60
2023-03-12T10:49:34.773Z,3.20
2023-03-12T10:52:13.490Z,3.90
2023-03-12T10:54:45.788Z,3.00
2023-03-12T10:57:16.892Z,3.70
2023-03-12T10:59:49.239Z,4.80
2023-03-12T11:02:40.839Z,4.70
2023-03-12T11:05:27.070Z,4.30
2023-03-12T11:07:57.665Z,3.90
2023-03-12T11:10:34.781Z,3.30
2023-03-12T11:13:37.762Z,4.40
2023-03-12T11:16:21.338Z,4.60
2023-03-12T11:19:04.662Z,4.20
2023-03-12T11:21:38.785Z,3.10
2023-03-12T11:24:13.612Z,4.30
2023-03-12T11:26:54.661Z,4.30
2023-03-12T11:29:41.467Z,3.80
2023-03-12T11:32:20.324Z,3.00
2023-03-12T11:34:51.542Z,3.60
2023-03-12T11:38:13.223Z,3.40
2023-03-12T11:40:45.284Z,2.90
2023-03-12T11:43:42.706Z,2.90
2023-03-12T11:46:26.714Z,3.80
2023-03-12T11:49:08.717Z,3.60
2023-03-12T11:51:54.395Z,3.70
2023-03-12T11:54:42.094Z,3.00
2023-03-12T11:57:27.441Z,3.00
2023-03-12T12:00:29.049Z,5.00
2023-03-12T12:03:17.745Z,4.20
2023-03-12T12:06:01.066Z,3.30
2023-03-12T12:08:44.411Z,3.50
2023-03-12T12:11:43.177Z,3.30
2023-03-12T12:14:40.778Z,3.40
2023-03-12T12:17:28.689Z,3.60
2023-03-12T12:20:19.950Z,3.50
2023-03-12T12:22:58.438Z,3.50
2023-03-12T12:25:42.785Z,3.30
2023-03-12T12:28:37.821Z,3.10
2023-03-12T12:31:22.249Z,3.90
2023-03-12T12:33:54.524Z,4.40
2023-03-12T12:36:28.176Z,3.90
2023-03-12T12:39:06.715Z,3.80
2023-03-12T12:41:48.544Z,4.70
2023-03-12T12:44:24.696Z,4.60
2023-03-12T12:47:02.089Z,3.70
2023-03-12T12:49:53.137Z,3.10
2023-03-12T12:52:23.494Z,3.20
2023-03-12T12:55:08.331Z,4.30
2023-03-12T12:57:46.517Z,6.00
2023-03-12T13:00:43.872Z,3.40
2023-03-12T13:03:25.615Z,3.60
2023-03-12T13:06:03.301Z,2.90
2023-03-12T13:08:36.801Z,3.90
2023-03-12T13:11:24.214Z,4.00
2023-03-12T13:14:16.585Z,4.00
2023-03-12T13:16:47.848Z,4.00
2023-03-12T13:19:17.542Z,3.20
2023-03-12T13:21:59.730Z,3.40
2023-03-12T13:24:52.658Z,4.70
2023-03-12T13:27:32.622Z,3.10
2023-03-12T13:30:48.926Z,3.10
2023-03-12T13:33:36.909Z,3.40
2023-03-12T13:36:12.294Z,3.10
2023-03-12T13:39:03.521Z,3.50
2023-03-12T13:41:50.790Z,3.70
2023-03-12T13:44:32.399Z,3.20
2023-03-12T13:47:27.929Z,4.10
2023-03-12T13:50:05.061Z,4.00
2023-03-12T13:52:41.699Z,2.80
2023-03-12T13:55:29.302Z,3.80
2023-03-12T13:58:08.264Z,3.90
2023-03-12T14:01:01.256Z,4.60
2023-03-12T14:03:43.482Z,3.30
2023-03-12T14:06:20.776Z,2.70
2023-03-12T14:09:08.890Z,3.80
2023-03-12T14:12:09.402Z,3.40
2023-03-12T14:15:00.222Z,4.30
2023-03-12T14:17:32.466Z,3.50
2023-03-12T14:20:08.089Z,3.70
2023-03-12T14:22:40.626Z,3.20
2023-03-12T14:25:25.283Z,4.40
2023-03-12T14:27:54.660Z,6.30
2023-03-12T14:30:29.677Z,3.50
2023-03-12T14:33:02.556Z,3.30
2023-03-12T14:35:45.562Z,4.10
2023-03-12T14:38:22.585Z,5.00
2023-03-12T14:41:01.315Z,4.70
2023-03-12T14:43:35.812Z,3.20
2023-03-12T14:46:13.861Z,3.80
2023-03-12T14:48:42.964Z,2.80
2023-03-12T14:51:25.602Z,3.30
2023-03-12T14:53:56.234Z,2.80
2023-03-12T14:56:32.847Z,3.80
2023-03-12T14:59:28.459Z,2.90
2023-03-12T15:02:11.917Z,3.20
2023-03-12T15:04:42.866Z,2.90
2023-03-12T15:07:16.320Z,3.00
2023-03-12T15:09:53.423Z,3.30
2023-03-12T15:12:30.756Z,2.30
2023-03-12T15:15:09.166Z,3.10
2023-03-12T15:17:38.736Z,2.80
2023-03-12T15:20:16.859Z,3.10
2023-03-12T15:22:46.474Z,3.50
2023-03-12T15:25:36.533Z,3.90
2023-03-12T15:28:27.313Z,2.90
2023-03-12T15:31:16.030Z,3.30
2023-03-12T15:33:46.022Z,3.70
2023-03-12T15:36:15.179Z,5.50
2023-03-12T15:38:54.134Z,3.30
2023-03-12T15:41:28.702Z,2.90
2023-03-12T15:44:00.262Z,3.90
2023-03-12T15:46:29.620Z,3.30
2023-03-12T15:49:01.409Z,4.00
2023-03-12T15:51:36.931Z,6.10
2023-03-12T15:54:14.495Z,3.60
2023-03-12T15:56:43.942Z,2.40
2023-03-12T15:59:29.164Z,4.80
2023-03-12T16:01:59.090Z,4.60
2023-03-12T16:04:28.394Z,3.70
2023-03-12T16:06:57.570Z,3.70
2023-03-12T16:09:29.085Z,3.70
2023-03-12T16:11:58.404Z,4.00
2023-03-12T16:14:35.288Z,3.10
2023-03-12T16:17:04.720Z,4.00
2023-03-12T16:19:35.082Z,4.10
2023-03-12T16:22:04.732Z,4.90
2023-03-12T16:24:33.908Z,4.40
2023-03-12T16:27:07.896Z,5.10
2023-03-12T16:29:39.822Z,4.10
2023-03-12T16:32:17.374Z,3.90
2023-03-12T16:34:46.802Z,3.70
2023-03-12T16:37:16.279Z,4.90
2023-03-12T16:39:46.872Z,3.80
2023-03-12T16:42:19.127Z,3.60
2023-03-12T16:44:48.636Z,4.40
2023-03-12T16:47:18.817Z,4.10
2023-03-12T16:49:48.966Z,5.90
2023-03-12T16:52:28.922Z,6.40
2023-03-12T16:54:58.534Z,5.50
2023-03-12T16:57:33.366Z,4.50
2023-03-12T17:00:08.312Z,5.80
2023-03-12T17:02:37.803Z,4.10
2023-03-12T17:05:08.775Z,4.90
2023-03-12T17:07:38.401Z,4.10
2023-03-12T17:10:08.198Z,3.70
2023-03-12T17:12:41.022Z,4.70
2023-03-12T17:15:34.444Z,4.70
2023-03-12T17:18:05.313Z,5.70
2023-03-12T17:20:37.985Z,6.40
2023-03-12T17:23:09.818Z,4.50
2023-03-12T17:25:42.453Z,5.70
2023-03-12T17:28:13.231Z,8.10
2023-03-12T17:30:42.906Z,5.90
2023-03-12T17:33:15.325Z,7.50
2023-03-12T17:35:46.706Z,4.80
2023-03-12T17:38:17.809Z,4.50
2023-03-12T17:40:47.564Z,4.80
2023-03-12T17:43:17.908Z,4.50
2023-03-12T17:45:47.697Z,4.00
2023-03-12T17:48:18.114Z,6.40
2023-03-12T17:50:47.724Z,5.00
2023-03-12T17:53:17.848Z,7.50
2023-03-12T17:55:48.881Z,4.40
2023-03-12T17:58:19.181Z,7.80
2023-03-12T18:00:50.184Z,5.00
2023-03-12T18:03:19.489Z,3.70
2023-03-12T18:05:51.822Z,5.50
2023-03-12T18:08:21.372Z,6.00
2023-03-12T18:10:51.481Z,6.80
2023-03-12T18:13:20.847Z,4.70
2023-03-12T18:15:54.912Z,9.10
2023-03-12T18:18:26.051Z,8.70
2023-03-12T18:20:55.464Z,6.00
2023-03-12T18:23:26.010Z,5.40
2023-03-12T18:25:56.555Z,4.00
2023-03-12T18:28:26.273Z,5.00
2023-03-12T18:30:55.832Z,5.80
2023-03-12T18:33:25.714Z,3.70
2023-03-12T18:35:58.912Z,5.00
2023-03-12T18:38:29.711Z,8.50
2023-03-12T18:41:11.460Z,9.80
2023-03-12T18:43:42.443Z,12.40
2023-03-12T18:46:13.712Z,16.10
2023-03-12T18:48:44.384Z,31.10
2023-03-12T18:51:15.725Z,26.70
2023-03-12T18:53:49.247Z,18.10
2023-03-12T18:56:19.024Z,6.80
2023-03-12T18:58:48.246Z,6.10
2023-03-12T19:01:17.662Z,7.60
2023-03-12T19:03:47.198Z,5.70
2023-03-12T19:06:17.895Z,5.20
2023-03-12T19:08:47.731Z,5.80
2023-03-12T19:11:18.048Z,5.80
2023-03-12T19:13:53.074Z,12.10
2023-03-12T19:16:23.104Z,12.70
2023-03-12T19:18:53.570Z,13.20
2023-03-12T19:21:23.948Z,5.90
2023-03-12T19:23:55.023Z,5.40
2023-03-12T19:26:25.567Z,4.30
2023-03-12T19:28:55.294Z,3.90
2023-03-12T19:31:26.951Z,7.90
2023-03-12T19:33:56.925Z,11.80
2023-03-12T19:36:27.171Z,10.80
2023-03-12T19:38:57.682Z,9.60
2023-03-12T19:41:27.144Z,10.90
2023-03-12T19:43:57.380Z,7.70
2023-03-12T19:46:27.831Z,7.80
2023-03-12T19:48:57.999Z,8.10
2023-03-12T19:51:28.620Z,10.10
2023-03-12T19:53:58.753Z,8.20
2023-03-12T19:56:29.838Z,7.40
2023-03-12T19:59:00.909Z,6.60
2023-03-12T20:01:31.298Z,7.20
2023-03-12T20:04:01.318Z,7.10
2023-03-12T20:06:31.891Z,6.60
2023-03-12T20:09:03.337Z,16.80
2023-03-12T20:11:37.013Z,14.70
2023-03-12T20:14:07.134Z,10.30
2023-03-12T20:16:38.127Z,7.30
2023-03-12T20:19:09.525Z,18.80
2023-03-12T20:21:41.193Z,17.90
2023-03-12T20:24:15.469Z,8.40
2023-03-12T20:26:46.305Z,8.00
2023-03-12T20:29:17.160Z,4.20
2023-03-12T20:31:49.506Z,4.60
2023-03-12T20:34:23.338Z,5.60
2023-03-12T20:36:55.548Z,6.40
2023-03-12T20:39:26.473Z,6.30
2023-03-12T20:41:57.708Z,9.00
2023-03-12T20:44:28.786Z,6.90
2023-03-12T20:46:59.786Z,7.20
2023-03-12T20:49:30.919Z,6.70
2023-03-12T20:52:01.443Z,4.20
2023-03-12T20:54:33.805Z,13.40
2023-03-12T20:57:04.643Z,11.10
2023-03-12T20:59:35.227Z,7.30
2023-03-12T21:02:05.807Z,4.80
2023-03-12T21:04:35.705Z,7.40
2023-03-12T21:07:06.652Z,5.90
2023-03-12T21:09:37.655Z,7.50
2023-03-12T21:12:08.093Z,7.40
2023-03-12T21:14:40.927Z,12.30
2023-03-12T21:17:14.252Z,14.10
2023-03-12T21:19:44.939Z,10.70
2023-03-12T21:22:15.398Z,10.30
2023-03-12T21:24:45.559Z,9.30
2023-03-12T21:27:15.296Z,8.00
2023-03-12T21:29:45.409Z,7.50
2023-03-12T21:32:15.414Z,8.30
2023-03-12T21:34:45.187Z,10.50
2023-03-12T21:37:17.297Z,8.90
2023-03-12T21:39:46.611Z,9.70
2023-03-12T21:42:16.359Z,8.90
2023-03-12T21:44:45.723Z,6.70
2023-03-12T21:47:15.200Z,6.20
2023-03-12T21:49:44.085Z,7.50
2023-03-12T21:52:13.854Z,7.20
2023-03-12T21:54:42.855Z,6.30
2023-03-12T21:57:12.214Z,4.40
2023-03-12T21:59:42.131Z,4.60
2023-03-12T22:02:15.878Z,17.80
2023-03-12T22:04:45.948Z,8.90
2023-03-12T22:07:15.881Z,6.90
2023-03-12T22:09:45.651Z,5.60
2023-03-12T22:12:14.600Z,6.40
2023-03-12T22:14:44.442Z,5.40
2023-03-12T22:17:14.199Z,6.40
2023-03-12T22:19:43.812Z,7.10
2023-03-12T22:22:12.894Z,5.10
2023-03-12T22:24:42.106Z,5.20
2023-03-12T22:27:12.649Z,5.90
2023-03-12T22:29:44.369Z,11.10
2023-03-12T22:32:13.621Z,9.90
2023-03-12T22:34:43.251Z,12.10
2023-03-12T22:37:12.961Z,11.60
2023-03-12T22:39:43.867Z,13.00
2023-03-12T22:42:13.108Z,16.50
2023-03-12T22:44:42.416Z,9.50
2023-03-12T22:47:12.155Z,6.20
2023-03-12T22:49:41.328Z,5.00
2023-03-12T22:52:10.174Z,4.00
2023-03-12T22:54:38.842Z,23.10
2023-03-12T22:57:07.835Z,96.90
2023-03-12T22:59:38.788Z,22.00
2023-03-12T23:02:07.475Z,12.80
2023-03-12T23:04:36.556Z,9.00
2023-03-12T23:07:14.388Z,13.40
2023-03-12T23:09:47.541Z,14.00
2023-03-12T23:12:16.404Z,12.00
2023-03-12T23:14:45.386Z,7.30
2023-03-12T23:17:14.569Z,6.30
2023-03-12T23:19:44.409Z,6.20
2023-03-12T23:22:13.351Z,9.00
2023-03-12T23:24:42.634Z,7.60
2023-03-12T23:27:11.702Z,5.00
2023-03-12T23:29:40.604Z,4.60
2023-03-12T23:32:09.685Z,4.40
2023-03-12T23:34:38.877Z,5.30
2023-03-12T23:37:08.699Z,4.00
2023-03-12T23:39:53.426Z,4.60
2023-03-12T23:42:23.331Z,5.00
2023-03-12T23:44:52.078Z,4.30
2023-03-12T23:47:21.222Z,5.40
2023-03-12T23:49:50.631Z,8.20
2023-03-12T23:52:19.638Z,5.70
2023-03-12T23:54:48.907Z,8.40
2023-03-12T23:57:17.797Z,7.00
2023-03-12T23:59:46.826Z,5.90
